createdAt,value
2019-02-10T00:01:11.500Z,4.70
2019-02-10T00:03:42.907Z,4.70
2019-02-10T00:06:13.384Z,4.70
2019-02-10T00:08:43.788Z,4.70
2019-02-10T00:11:14.236Z,4.70
2019-02-10T00:13:44.588Z,4.70
2019-02-10T00:16:22.029Z,4.70
2019-02-10T00:18:52.650Z,4.70
2019-02-10T00:21:23.764Z,4.70
2019-02-10T00:23:54.543Z,4.60
2019-02-10T00:26:25.468Z,4.70
2019-02-10T00:28:56.430Z,4.60
2019-02-10T00:31:27.192Z,4.60
2019-02-10T00:33:57.645Z,4.60
2019-02-10T00:36:33.269Z,4.60
2019-02-10T00:39:01.821Z,4.60
2019-02-10T00:41:34.034Z,4.60
2019-02-10T00:44:04.730Z,4.60
2019-02-10T00:46:35.275Z,4.70
2019-02-10T00:49:06.220Z,4.70
2019-02-10T00:51:36.666Z,4.70
2019-02-10T00:54:07.234Z,4.70
2019-02-10T00:56:37.651Z,4.70
2019-02-10T00:59:08.687Z,4.60
2019-02-10T01:01:39.064Z,4.70
2019-02-10T01:04:09.473Z,4.70
2019-02-10T01:06:41.695Z,4.70
2019-02-10T01:09:12.221Z,4.60
2019-02-10T01:11:42.904Z,4.60
2019-02-10T01:14:13.273Z,4.60
2019-02-10T01:16:43.681Z,4.70
2019-02-10T01:19:14.101Z,4.60
2019-02-10T01:21:46.383Z,4.60
2019-02-10T01:24:17.034Z,4.60
2019-02-10T01:26:47.447Z,4.60
2019-02-10T01:29:17.804Z,4.50
2019-02-10T01:31:48.218Z,4.50
2019-02-10T01:34:18.608Z,4.50
2019-02-10T01:36:49.980Z,4.50
2019-02-10T01:39:23.938Z,4.50
2019-02-10T01:41:54.338Z,4.50
2019-02-10T01:44:25.061Z,4.50
2019-02-10T01:46:55.710Z,4.60
2019-02-10T01:49:26.220Z,4.50
2019-02-10T01:51:56.667Z,4.50
2019-02-10T01:54:27.052Z,4.50
2019-02-10T01:56:57.899Z,4.50
2019-02-10T01:59:28.413Z,4.50
2019-02-10T02:01:58.824Z,4.50
2019-02-10T02:04:29.186Z,4.50
2019-02-10T02:06:59.612Z,4.50
2019-02-10T02:09:29.967Z,4.50
2019-02-10T02:12:00.367Z,4.50
2019-02-10T02:14:30.878Z,4.50
2019-02-10T02:17:01.805Z,4.50
2019-02-10T02:19:32.308Z,4.50
2019-02-10T02:22:02.784Z,4.40
2019-02-10T02:24:33.325Z,4.50
2019-02-10T02:27:03.834Z,4.40
2019-02-10T02:29:34.361Z,4.40
2019-02-10T02:32:04.693Z,4.40
2019-02-10T02:34:35.143Z,4.40
2019-02-10T02:37:08.033Z,4.40
2019-02-10T02:39:37.841Z,4.40
2019-02-10T02:42:08.203Z,4.40
2019-02-10T02:44:41.593Z,4.40
2019-02-10T02:47:13.939Z,4.40
2019-02-10T02:49:44.679Z,4.40
2019-02-10T02:52:15.373Z,4.30
2019-02-10T02:54:45.815Z,4.30
2019-02-10T02:57:16.214Z,4.30
2019-02-10T02:59:46.646Z,4.30
2019-02-10T03:02:17.065Z,4.30
2019-02-10T03:04:47.516Z,4.30
2019-02-10T03:07:18.395Z,4.20
2019-02-10T03:09:49.073Z,4.20
2019-02-10T03:12:19.750Z,4.30
2019-02-10T03:14:50.186Z,4.20
2019-02-10T03:17:22.226Z,4.20
2019-02-10T03:19:52.860Z,4.30
2019-02-10T03:22:23.217Z,4.30
2019-02-10T03:24:53.657Z,4.20
2019-02-10T03:27:24.047Z,4.30
2019-02-10T03:29:55.839Z,4.30
2019-02-10T03:32:26.305Z,4.20
2019-02-10T03:34:56.768Z,4.20
2019-02-10T03:37:27.628Z,4.20
2019-02-10T03:39:58.087Z,4.20
2019-02-10T03:42:28.448Z,4.20
2019-02-10T03:44:59.211Z,4.20
2019-02-10T03:47:29.640Z,4.20
2019-02-10T03:50:00.298Z,4.10
2019-02-10T03:52:31.443Z,4.10
2019-02-10T03:55:02.276Z,4.10
2019-02-10T03:57:32.837Z,4.10
2019-02-10T04:00:03.594Z,4.10
2019-02-10T04:02:34.267Z,4.10
2019-02-10T04:05:04.989Z,4.10
2019-02-10T04:07:36.479Z,4.20
2019-02-10T04:10:08.117Z,4.20
2019-02-10T04:12:38.739Z,4.30
2019-02-10T04:15:09.640Z,4.30
2019-02-10T04:17:40.043Z,4.30
2019-02-10T04:20:10.539Z,4.40
2019-02-10T04:22:40.960Z,4.40
2019-02-10T04:25:11.367Z,4.40
2019-02-10T04:27:42.105Z,4.40
2019-02-10T04:30:12.562Z,4.40
2019-02-10T04:32:42.927Z,4.40
2019-02-10T04:35:13.339Z,4.40
2019-02-10T04:37:46.036Z,4.40
2019-02-10T04:40:16.018Z,4.40
2019-02-10T04:42:46.664Z,4.40
2019-02-10T04:45:17.127Z,4.30
2019-02-10T04:47:47.437Z,4.30
2019-02-10T04:50:17.939Z,4.40
2019-02-10T04:52:48.556Z,4.30
2019-02-10T04:55:19.317Z,4.30
2019-02-10T04:57:49.739Z,4.30
2019-02-10T05:00:20.395Z,4.30
2019-02-10T05:02:50.917Z,4.30
2019-02-10T05:05:21.593Z,4.30
2019-02-10T05:07:54.558Z,4.30
2019-02-10T05:10:24.039Z,4.30
2019-02-10T05:12:54.447Z,4.30
2019-02-10T05:15:24.861Z,4.20
2019-02-10T05:17:55.433Z,4.20
2019-02-10T05:20:26.184Z,4.20
2019-02-10T05:22:56.601Z,4.20
2019-02-10T05:25:27.038Z,4.20
2019-02-10T05:27:57.357Z,4.20
2019-02-10T05:30:27.825Z,4.20
2019-02-10T05:32:58.625Z,4.20
2019-02-10T05:35:29.113Z,4.20
2019-02-10T05:38:04.193Z,4.20
2019-02-10T05:40:31.609Z,4.20
2019-02-10T05:43:01.963Z,4.20
2019-02-10T05:45:32.744Z,4.20
2019-02-10T05:48:03.127Z,4.20
2019-02-10T05:50:34.607Z,4.20
2019-02-10T05:53:05.076Z,4.20
2019-02-10T05:55:35.931Z,4.30
2019-02-10T05:58:06.407Z,4.30
2019-02-10T06:00:37.244Z,4.30
2019-02-10T06:03:07.787Z,4.30
2019-02-10T06:05:38.609Z,4.30
2019-02-10T06:08:13.563Z,4.30
2019-02-10T06:10:41.000Z,4.30
2019-02-10T06:13:11.356Z,4.40
2019-02-10T06:15:41.724Z,4.50
2019-02-10T06:18:12.171Z,4.50
2019-02-10T06:20:42.894Z,4.50
2019-02-10T06:23:13.617Z,4.60
2019-02-10T06:25:44.057Z,4.60
2019-02-10T06:28:14.485Z,4.70
2019-02-10T06:30:44.945Z,4.70
2019-02-10T06:33:15.356Z,4.80
2019-02-10T06:35:45.662Z,4.80
2019-02-10T06:38:22.150Z,4.80
2019-02-10T06:40:48.206Z,4.90
2019-02-10T06:43:18.601Z,5.00
2019-02-10T06:45:49.406Z,5.10
2019-02-10T06:48:19.955Z,5.10
2019-02-10T06:50:50.675Z,5.30
2019-02-10T06:53:21.101Z,5.30
2019-02-10T06:55:51.506Z,5.40
2019-02-10T06:58:22.015Z,5.50
2019-02-10T07:01:18.735Z,5.60
2019-02-10T07:04:02.940Z,5.80
2019-02-10T07:06:33.389Z,5.90
2019-02-10T07:09:04.257Z,6.00
2019-02-10T07:11:34.711Z,6.10
2019-02-10T07:14:13.520Z,6.20
2019-02-10T07:16:51.211Z,6.30
2019-02-10T07:19:57.295Z,6.40
2019-02-10T07:23:21.319Z,6.60
2019-02-10T07:26:02.969Z,6.60
2019-02-10T07:29:14.637Z,6.90
2019-02-10T07:31:54.037Z,7.10
2019-02-10T07:35:11.495Z,7.10
2019-02-10T07:38:09.567Z,7.40
2019-02-10T07:41:21.103Z,7.50
2019-02-10T07:44:24.746Z,7.60
2019-02-10T07:47:42.023Z,7.70
2019-02-10T07:50:33.853Z,7.80
2019-02-10T07:53:29.493Z,8.00
2019-02-10T07:56:50.078Z,8.00
2019-02-10T08:00:02.266Z,8.20
2019-02-10T08:03:16.533Z,8.00
2019-02-10T08:06:40.491Z,8.20
2019-02-10T08:09:40.474Z,8.30
2019-02-10T08:12:38.783Z,8.40
2019-02-10T08:15:34.178Z,8.50
2019-02-10T08:18:56.609Z,8.70
2019-02-10T08:21:56.679Z,8.80
2019-02-10T08:24:55.466Z,9.10
2019-02-10T08:27:45.040Z,9.30
2019-02-10T08:30:25.882Z,9.50
2019-02-10T08:33:46.297Z,9.50
2019-02-10T08:37:16.101Z,9.90
2019-02-10T08:40:22.094Z,9.90
2019-02-10T08:43:37.659Z,9.70
2019-02-10T08:46:48.347Z,9.60
2019-02-10T08:49:45.755Z,9.80
2019-02-10T08:52:32.502Z,9.60
2019-02-10T08:55:02.953Z,9.40
2019-02-10T08:57:33.337Z,9.60
2019-02-10T09:00:04.362Z,9.90
2019-02-10T09:02:35.089Z,10.00
2019-02-10T09:05:06.015Z,10.10
2019-02-10T09:07:36.722Z,10.00
2019-02-10T09:10:10.260Z,9.60
2019-02-10T09:12:40.806Z,9.40
2019-02-10T09:15:12.226Z,9.30
2019-02-10T09:17:42.549Z,9.40
2019-02-10T09:20:13.927Z,9.40
2019-02-10T09:22:44.454Z,9.50
2019-02-10T09:25:14.859Z,9.60
2019-02-10T09:27:45.359Z,9.50
2019-02-10T09:30:15.765Z,9.50
2019-02-10T09:32:46.198Z,9.40
2019-02-10T09:35:16.620Z,9.60
2019-02-10T09:37:47.445Z,9.70
2019-02-10T09:40:18.078Z,9.50
2019-02-10T09:42:48.885Z,9.90
2019-02-10T09:45:19.370Z,10.10
2019-02-10T09:47:49.804Z,9.80
2019-02-10T09:50:22.083Z,10.00
2019-02-10T09:52:52.526Z,10.30
2019-02-10T09:55:22.945Z,10.10
2019-02-10T09:57:53.466Z,10.30
2019-02-10T10:00:23.913Z,9.90
2019-02-10T10:02:54.503Z,9.80
2019-02-10T10:05:24.911Z,10.00
2019-02-10T10:07:55.397Z,10.00
2019-02-10T10:10:25.798Z,10.40
2019-02-10T10:12:56.495Z,10.60
2019-02-10T10:15:26.859Z,10.30
2019-02-10T10:17:57.337Z,10.50
2019-02-10T10:20:27.886Z,10.50
2019-02-10T10:22:58.302Z,10.50
2019-02-10T10:25:28.737Z,10.80
2019-02-10T10:27:59.216Z,10.70
2019-02-10T10:30:29.654Z,11.00
2019-02-10T10:33:01.469Z,10.90
2019-02-10T10:35:31.835Z,10.20
2019-02-10T10:38:02.574Z,10.30
2019-02-10T10:40:33.867Z,10.40
2019-02-10T10:43:04.410Z,10.60
2019-02-10T10:45:35.085Z,10.60
2019-02-10T10:48:05.645Z,10.90
2019-02-10T10:50:36.111Z,10.50
2019-02-10T10:53:06.471Z,10.40
2019-02-10T10:55:36.898Z,10.30
2019-02-10T10:58:07.354Z,10.00
2019-02-10T11:00:37.798Z,10.20
2019-02-10T11:03:08.280Z,9.90
2019-02-10T11:05:38.659Z,9.30
2019-02-10T11:08:09.114Z,9.00
2019-02-10T11:10:39.458Z,8.80
2019-02-10T11:13:10.740Z,8.80
2019-02-10T11:15:41.222Z,8.80
2019-02-10T11:18:11.759Z,8.90
2019-02-10T11:20:42.608Z,8.90
2019-02-10T11:23:13.383Z,8.90
2019-02-10T11:25:43.866Z,8.80
2019-02-10T11:28:14.293Z,8.70
2019-02-10T11:30:44.980Z,8.80
2019-02-10T11:33:15.420Z,8.90
2019-02-10T11:35:45.801Z,8.80
2019-02-10T11:38:16.268Z,8.90
2019-02-10T11:40:46.673Z,8.90
2019-02-10T11:43:17.083Z,8.90
2019-02-10T11:45:47.700Z,8.90
2019-02-10T11:48:18.126Z,9.00
2019-02-10T11:50:48.646Z,9.10
2019-02-10T11:53:19.117Z,9.10
2019-02-10T11:55:49.515Z,9.10
2019-02-10T11:58:20.170Z,9.30
2019-02-10T12:00:50.692Z,9.20
2019-02-10T12:03:21.399Z,9.20
2019-02-10T12:05:51.768Z,9.20
2019-02-10T12:08:22.371Z,9.30
2019-02-10T12:10:52.744Z,9.30
2019-02-10T12:13:23.282Z,9.30
2019-02-10T12:15:54.178Z,9.20
2019-02-10T12:18:24.648Z,9.20
2019-02-10T12:20:54.986Z,9.10
2019-02-10T12:23:25.736Z,9.10
2019-02-10T12:25:56.160Z,9.10
2019-02-10T12:28:26.561Z,9.10
2019-02-10T12:30:56.953Z,9.10
2019-02-10T12:33:27.767Z,9.20
2019-02-10T12:35:58.618Z,9.50
2019-02-10T12:38:29.120Z,9.40
2019-02-10T12:41:00.866Z,9.40
2019-02-10T12:43:33.019Z,9.40
2019-02-10T12:46:04.009Z,9.50
2019-02-10T12:48:34.699Z,9.50
2019-02-10T12:51:05.432Z,9.70
2019-02-10T12:53:35.990Z,9.80
2019-02-10T12:56:06.443Z,9.90
2019-02-10T12:58:37.235Z,10.00
2019-02-10T13:01:07.681Z,10.00
2019-02-10T13:03:38.154Z,10.20
2019-02-10T13:06:09.082Z,10.50
2019-02-10T13:08:39.582Z,10.70
2019-02-10T13:11:10.260Z,11.00
2019-02-10T13:13:40.637Z,11.00
2019-02-10T13:16:11.037Z,10.80
2019-02-10T13:18:41.471Z,10.50
2019-02-10T13:21:12.150Z,10.30
2019-02-10T13:23:43.640Z,9.90
2019-02-10T13:26:14.275Z,9.80
2019-02-10T13:28:44.862Z,9.60
2019-02-10T13:31:15.213Z,9.50
2019-02-10T13:33:45.729Z,9.40
2019-02-10T13:36:16.085Z,9.40
2019-02-10T13:38:46.682Z,9.40
2019-02-10T13:41:18.174Z,9.40
2019-02-10T13:43:48.600Z,9.40
2019-02-10T13:46:19.108Z,9.40
2019-02-10T13:48:50.113Z,9.40
2019-02-10T13:51:20.600Z,9.40
2019-02-10T13:53:50.972Z,9.40
2019-02-10T13:56:21.630Z,9.50
2019-02-10T13:58:52.203Z,9.50
2019-02-10T14:01:22.734Z,9.50
2019-02-10T14:03:53.475Z,9.50
2019-02-10T14:06:24.005Z,9.50
2019-02-10T14:08:54.442Z,9.50
2019-02-10T14:11:25.130Z,9.50
2019-02-10T14:13:55.564Z,9.50
2019-02-10T14:16:26.022Z,9.50
2019-02-10T14:18:56.510Z,9.40
2019-02-10T14:21:27.733Z,9.40
2019-02-10T14:23:59.387Z,9.40
2019-02-10T14:26:29.857Z,9.40
2019-02-10T14:29:00.822Z,9.30
2019-02-10T14:31:31.280Z,9.30
2019-02-10T14:34:03.419Z,9.30
2019-02-10T14:36:34.239Z,9.20
2019-02-10T14:39:05.938Z,9.20
2019-02-10T14:41:36.393Z,9.20
2019-02-10T14:44:07.116Z,9.20
2019-02-10T14:46:37.556Z,9.10
2019-02-10T14:49:08.193Z,9.10
2019-02-10T14:51:38.744Z,9.00
2019-02-10T14:54:09.126Z,9.00
2019-02-10T14:56:39.692Z,8.90
2019-02-10T14:59:11.298Z,8.80
2019-02-10T15:01:42.088Z,8.80
2019-02-10T15:04:12.784Z,8.70
2019-02-10T15:06:43.190Z,8.60
2019-02-10T15:09:13.503Z,8.60
2019-02-10T15:11:44.266Z,8.50
2019-02-10T15:14:14.756Z,8.50
2019-02-10T15:16:45.188Z,8.40
2019-02-10T15:19:16.132Z,8.40
2019-02-10T15:21:46.664Z,8.30
2019-02-10T15:24:17.209Z,8.30
2019-02-10T15:26:47.698Z,8.20
2019-02-10T15:29:18.208Z,8.10
2019-02-10T15:31:48.614Z,8.00
2019-02-10T15:34:19.214Z,7.90
2019-02-10T15:36:49.892Z,7.90
2019-02-10T15:39:20.456Z,7.80
2019-02-10T15:41:50.927Z,7.70
2019-02-10T15:44:21.338Z,7.70
2019-02-10T15:46:51.754Z,7.60
2019-02-10T15:49:22.584Z,7.60
2019-02-10T15:51:52.972Z,7.50
2019-02-10T15:54:23.839Z,7.40
2019-02-10T15:56:54.273Z,7.40
2019-02-10T15:59:24.643Z,7.30
2019-02-10T16:01:55.302Z,7.30
2019-02-10T16:04:26.540Z,7.30
2019-02-10T16:06:57.619Z,7.20
2019-02-10T16:09:28.042Z,7.20
2019-02-10T16:11:58.644Z,7.20
2019-02-10T16:14:31.044Z,7.10
2019-02-10T16:17:02.920Z,7.10
2019-02-10T16:19:33.345Z,7.10
2019-02-10T16:22:03.880Z,7.10
2019-02-10T16:24:34.504Z,7.00
2019-02-10T16:27:04.992Z,7.00
2019-02-10T16:29:35.718Z,7.00
2019-02-10T16:32:06.172Z,7.00
2019-02-10T16:34:36.676Z,6.90
2019-02-10T16:37:07.748Z,6.90
2019-02-10T16:39:38.504Z,6.90
2019-02-10T16:42:09.010Z,6.80
2019-02-10T16:44:39.436Z,6.80
2019-02-10T16:47:09.887Z,6.70
2019-02-10T16:49:40.282Z,6.70
2019-02-10T16:52:10.997Z,6.70
2019-02-10T16:54:41.497Z,6.70
2019-02-10T16:57:12.994Z,6.60
2019-02-10T16:59:43.390Z,6.60
2019-02-10T17:02:14.272Z,6.60
2019-02-10T17:04:45.512Z,6.60
2019-02-10T17:07:16.128Z,6.60
2019-02-10T17:09:46.547Z,6.60
2019-02-10T17:12:17.014Z,6.60
2019-02-10T17:14:47.396Z,6.60
2019-02-10T17:17:18.177Z,6.60
2019-02-10T17:19:48.679Z,6.60
2019-02-10T17:22:19.120Z,6.60
2019-02-10T17:24:49.587Z,6.60
2019-02-10T17:27:20.227Z,6.60
2019-02-10T17:29:50.863Z,6.60
2019-02-10T17:32:21.227Z,6.60
2019-02-10T17:34:52.024Z,6.50
2019-02-10T17:37:22.421Z,6.50
2019-02-10T17:39:53.045Z,6.50
2019-02-10T17:42:23.690Z,6.50
2019-02-10T17:44:54.458Z,6.50
2019-02-10T17:47:26.203Z,6.40
2019-02-10T17:49:58.280Z,6.40
2019-02-10T17:52:32.023Z,6.40
2019-02-10T17:55:00.774Z,6.40
2019-02-10T17:57:31.163Z,6.30
2019-02-10T18:00:02.263Z,6.30
2019-02-10T18:02:34.310Z,6.30
2019-02-10T18:05:05.441Z,6.20
2019-02-10T18:07:35.900Z,6.20
2019-02-10T18:10:08.952Z,6.20
2019-02-10T18:12:39.278Z,6.00
2019-02-10T18:15:28.788Z,6.00
2019-02-10T18:18:23.627Z,6.00
2019-02-10T18:21:09.767Z,5.90
2019-02-10T18:24:05.198Z,5.80
2019-02-10T18:26:53.236Z,5.80
2019-02-10T18:30:01.204Z,5.80
2019-02-10T18:33:03.739Z,5.70
2019-02-10T18:35:53.257Z,5.70
2019-02-10T18:38:45.935Z,5.70
2019-02-10T18:41:27.566Z,5.60
2019-02-10T18:44:15.476Z,5.60
2019-02-10T18:47:16.912Z,5.60
2019-02-10T18:49:53.793Z,5.60
2019-02-10T18:52:46.383Z,5.60
2019-02-10T18:55:38.499Z,5.50
2019-02-10T18:58:16.497Z,5.50
2019-02-10T19:01:05.407Z,5.50
2019-02-10T19:03:54.877Z,5.40
2019-02-10T19:06:44.545Z,5.40
2019-02-10T19:09:34.541Z,5.40
2019-02-10T19:12:11.711Z,5.40
2019-02-10T19:15:16.447Z,5.40
2019-02-10T19:18:08.780Z,5.40
2019-02-10T19:20:58.056Z,5.40
2019-02-10T19:23:41.917Z,5.40
2019-02-10T19:26:29.906Z,5.40
2019-02-10T19:29:22.303Z,5.40
2019-02-10T19:32:10.388Z,5.40
2019-02-10T19:34:54.543Z,5.40
2019-02-10T19:37:55.861Z,5.40
2019-02-10T19:41:04.515Z,5.30
2019-02-10T19:43:52.935Z,5.30
2019-02-10T19:46:51.666Z,5.30
2019-02-10T19:49:40.996Z,5.30
2019-02-10T19:52:21.431Z,5.30
2019-02-10T19:55:06.655Z,5.30
2019-02-10T19:58:03.181Z,5.30
2019-02-10T20:00:51.363Z,5.30
2019-02-10T20:03:39.659Z,5.30
2019-02-10T20:06:44.307Z,5.30
2019-02-10T20:09:45.871Z,5.30
2019-02-10T20:12:28.516Z,5.30
2019-02-10T20:15:20.645Z,5.30
2019-02-10T20:17:58.928Z,5.30
2019-02-10T20:20:47.863Z,5.30
2019-02-10T20:23:43.579Z,5.20
2019-02-10T20:26:41.851Z,5.20
2019-02-10T20:29:34.601Z,5.20
2019-02-10T20:32:17.874Z,5.30
2019-02-10T20:34:58.181Z,5.20
2019-02-10T20:37:42.551Z,5.20
2019-02-10T20:40:29.806Z,5.20
2019-02-10T20:43:18.027Z,5.20
2019-02-10T20:45:57.202Z,5.20
2019-02-10T20:48:55.699Z,5.10
2019-02-10T20:51:54.375Z,5.10
2019-02-10T20:54:35.522Z,5.20
2019-02-10T20:57:30.719Z,5.20
2019-02-10T21:00:20.131Z,5.10
2019-02-10T21:03:06.176Z,5.10
2019-02-10T21:05:51.762Z,5.10
2019-02-10T21:08:40.211Z,5.10
2019-02-10T21:11:21.361Z,5.20
2019-02-10T21:14:14.307Z,5.10
2019-02-10T21:16:50.833Z,5.10
2019-02-10T21:19:40.076Z,5.20
2019-02-10T21:22:20.589Z,5.20
2019-02-10T21:25:06.440Z,5.10
2019-02-10T21:28:01.939Z,5.10
2019-02-10T21:31:03.299Z,5.10
2019-02-10T21:33:53.030Z,5.20
2019-02-10T21:36:29.478Z,5.20
2019-02-10T21:39:07.692Z,5.10
2019-02-10T21:41:55.891Z,5.10
2019-02-10T21:44:42.325Z,5.20
2019-02-10T21:47:37.633Z,5.20
2019-02-10T21:50:08.349Z,5.10
2019-02-10T21:52:38.821Z,5.10
2019-02-10T21:55:09.531Z,5.10
2019-02-10T21:57:39.899Z,5.10
2019-02-10T22:00:13.165Z,5.10
2019-02-10T22:02:43.593Z,5.00
2019-02-10T22:05:14.018Z,5.00
2019-02-10T22:07:44.595Z,5.00
2019-02-10T22:10:15.054Z,4.90
2019-02-10T22:12:45.428Z,5.00
2019-02-10T22:15:15.872Z,5.00
2019-02-10T22:17:46.336Z,5.00
2019-02-10T22:20:16.785Z,5.00
2019-02-10T22:22:47.173Z,4.90
2019-02-10T22:25:17.576Z,4.90
2019-02-10T22:27:48.579Z,4.90
2019-02-10T22:30:19.223Z,4.90
2019-02-10T22:32:49.634Z,4.90
2019-02-10T22:35:20.549Z,4.90
2019-02-10T22:37:50.952Z,4.90
2019-02-10T22:40:21.744Z,4.90
2019-02-10T22:42:52.264Z,4.90
2019-02-10T22:45:23.304Z,4.90
2019-02-10T22:47:54.023Z,4.90
2019-02-10T22:50:24.594Z,4.90
2019-02-10T22:52:55.448Z,4.80
2019-02-10T22:55:25.763Z,4.80
2019-02-10T22:57:56.502Z,4.80
2019-02-10T23:00:49.167Z,4.80
2019-02-10T23:03:19.764Z,4.80
2019-02-10T23:05:50.524Z,4.80
2019-02-10T23:08:21.252Z,4.80
2019-02-10T23:10:52.070Z,4.70
2019-02-10T23:13:22.417Z,4.70
2019-02-10T23:15:54.471Z,4.70
2019-02-10T23:18:24.891Z,4.70
2019-02-10T23:20:55.375Z,4.70
2019-02-10T23:23:25.763Z,4.70
2019-02-10T23:25:56.262Z,4.70
2019-02-10T23:28:26.628Z,4.60
2019-02-10T23:30:57.065Z,4.60
2019-02-10T23:33:27.517Z,4.60
2019-02-10T23:35:58.098Z,4.60
2019-02-10T23:38:28.598Z,4.60
2019-02-10T23:40:59.065Z,4.70
2019-02-10T23:43:29.440Z,4.70
2019-02-10T23:46:00.066Z,4.70
2019-02-10T23:48:32.775Z,4.70
2019-02-10T23:51:03.388Z,4.70
2019-02-10T23:53:34.016Z,4.70
2019-02-10T23:56:05.077Z,4.70
2019-02-10T23:58:36.834Z,4.70
